Villers-le-Bouillet, Belgium
Current Conditions -  °F | °C
As of 11:20 PM on Monday 26 Jan 2015 (Local Time) from EBLG Reporting Station
Scattered Clouds Scattered Clouds  
Wind Chill: 31°   Ceiling: Unl
Heat Index: 37°   Visibility: 6mi
Dew Point: 34°   Wind: 8mph
Humidity: 87%   Direction: 300°WNW
Pressure: 30.18"   Gusts: NA
Location:  50.58°N, 5.26°E
Report Text: EBLG 262220Z 30007KT 9999 FEW020 SCT041 03/01 Q1022 NOSIG
Loading
Personal Weather Stations






























Interactive Weather Map New forecast layout! Learn more

10-Day Weather Forecast

Advertisements
Track Severe Weather on mobile